sensor_id;sensor_type;location;lat;lon;timestamp;temperature;humidity
67799;SHT30;54596;43.216;27.904;2022-08-19T00:01:21;24.12;78.18
67799;SHT30;54596;43.216;27.904;2022-08-19T00:03:47;24.09;78.12
67799;SHT30;54596;43.216;27.904;2022-08-19T00:06:12;24.05;77.90
67799;SHT30;54596;43.216;27.904;2022-08-19T00:08:38;24.02;77.62
67799;SHT30;54596;43.216;27.904;2022-08-19T00:11:03;24.02;77.58
67799;SHT30;54596;43.216;27.904;2022-08-19T00:13:29;23.99;77.75
67799;SHT30;54596;43.216;27.904;2022-08-19T00:15:54;23.95;77.94
67799;SHT30;54596;43.216;27.904;2022-08-19T00:18:20;23.99;77.55
67799;SHT30;54596;43.216;27.904;2022-08-19T00:20:45;23.98;77.26
67799;SHT30;54596;43.216;27.904;2022-08-19T00:23:10;24.03;76.83
67799;SHT30;54596;43.216;27.904;2022-08-19T00:25:36;24.14;76.08
67799;SHT30;54596;43.216;27.904;2022-08-19T00:28:02;24.13;75.89
67799;SHT30;54596;43.216;27.904;2022-08-19T00:30:27;24.08;75.97
67799;SHT30;54596;43.216;27.904;2022-08-19T00:32:53;24.08;76.01
67799;SHT30;54596;43.216;27.904;2022-08-19T00:35:20;24.03;75.79
67799;SHT30;54596;43.216;27.904;2022-08-19T00:37:46;23.99;75.75
67799;SHT30;54596;43.216;27.904;2022-08-19T00:40:12;23.98;75.11
67799;SHT30;54596;43.216;27.904;2022-08-19T00:42:38;23.93;74.49
67799;SHT30;54596;43.216;27.904;2022-08-19T00:45:05;23.92;74.06
67799;SHT30;54596;43.216;27.904;2022-08-19T00:47:33;23.98;73.47
67799;SHT30;54596;43.216;27.904;2022-08-19T00:49:59;24.02;72.96
67799;SHT30;54596;43.216;27.904;2022-08-19T00:52:28;24.03;73.02
67799;SHT30;54596;43.216;27.904;2022-08-19T00:54:54;24.06;72.93
67799;SHT30;54596;43.216;27.904;2022-08-19T00:57:25;24.05;72.62
67799;SHT30;54596;43.216;27.904;2022-08-19T00:59:51;24.09;72.51
67799;SHT30;54596;43.216;27.904;2022-08-19T01:02:17;24.10;72.40
67799;SHT30;54596;43.216;27.904;2022-08-19T01:04:43;24.08;72.48
67799;SHT30;54596;43.216;27.904;2022-08-19T01:07:08;24.06;72.57
67799;SHT30;54596;43.216;27.904;2022-08-19T01:09:33;24.05;72.59
67799;SHT30;54596;43.216;27.904;2022-08-19T01:11:59;24.02;72.58
67799;SHT30;54596;43.216;27.904;2022-08-19T01:14:24;24.01;72.76
67799;SHT30;54596;43.216;27.904;2022-08-19T01:16:50;24.01;72.86
67799;SHT30;54596;43.216;27.904;2022-08-19T01:19:25;24.01;72.90
67799;SHT30;54596;43.216;27.904;2022-08-19T01:21:55;23.95;73.10
67799;SHT30;54596;43.216;27.904;2022-08-19T01:24:22;23.90;73.28
67799;SHT30;54596;43.216;27.904;2022-08-19T01:26:48;23.95;73.37
67799;SHT30;54596;43.216;27.904;2022-08-19T01:29:14;24.05;73.75
67799;SHT30;54596;43.216;27.904;2022-08-19T01:31:39;24.01;74.45
67799;SHT30;54596;43.216;27.904;2022-08-19T01:34:05;23.95;75.24
67799;SHT30;54596;43.216;27.904;2022-08-19T01:36:32;23.85;76.13
67799;SHT30;54596;43.216;27.904;2022-08-19T01:38:58;23.85;76.48
67799;SHT30;54596;43.216;27.904;2022-08-19T01:41:24;23.79;76.94
67799;SHT30;54596;43.216;27.904;2022-08-19T01:43:50;23.81;77.19
67799;SHT30;54596;43.216;27.904;2022-08-19T01:46:16;23.76;77.44
67799;SHT30;54596;43.216;27.904;2022-08-19T01:48:42;23.75;77.47
67799;SHT30;54596;43.216;27.904;2022-08-19T01:51:08;23.71;77.44
67799;SHT30;54596;43.216;27.904;2022-08-19T01:53:34;23.74;77.70
67799;SHT30;54596;43.216;27.904;2022-08-19T01:55:59;23.69;77.37
67799;SHT30;54596;43.216;27.904;2022-08-19T01:58:45;23.65;77.53
67799;SHT30;54596;43.216;27.904;2022-08-19T02:01:12;23.58;77.84
67799;SHT30;54596;43.216;27.904;2022-08-19T02:03:38;23.55;77.78
67799;SHT30;54596;43.216;27.904;2022-08-19T02:06:04;23.53;77.37
67799;SHT30;54596;43.216;27.904;2022-08-19T02:08:30;23.53;77.13
67799;SHT30;54596;43.216;27.904;2022-08-19T02:10:56;23.51;77.06
67799;SHT30;54596;43.216;27.904;2022-08-19T02:13:22;23.55;76.48
67799;SHT30;54596;43.216;27.904;2022-08-19T02:15:47;23.62;75.94
67799;SHT30;54596;43.216;27.904;2022-08-19T02:18:13;23.65;75.44
67799;SHT30;54596;43.216;27.904;2022-08-19T02:20:39;23.58;75.21
67799;SHT30;54596;43.216;27.904;2022-08-19T02:23:04;23.58;75.17
67799;SHT30;54596;43.216;27.904;2022-08-19T02:25:30;23.59;74.98
67799;SHT30;54596;43.216;27.904;2022-08-19T02:27:55;23.61;74.80
67799;SHT30;54596;43.216;27.904;2022-08-19T02:30:21;23.62;74.78
67799;SHT30;54596;43.216;27.904;2022-08-19T02:32:47;23.59;75.46
67799;SHT30;54596;43.216;27.904;2022-08-19T02:35:13;23.54;75.75
67799;SHT30;54596;43.216;27.904;2022-08-19T02:37:38;23.57;75.92
67799;SHT30;54596;43.216;27.904;2022-08-19T02:40:22;23.48;76.30
67799;SHT30;54596;43.216;27.904;2022-08-19T02:42:48;23.47;76.64
67799;SHT30;54596;43.216;27.904;2022-08-19T02:45:14;23.44;76.80
67799;SHT30;54596;43.216;27.904;2022-08-19T02:47:39;23.39;77.20
67799;SHT30;54596;43.216;27.904;2022-08-19T02:50:05;23.34;77.33
67799;SHT30;54596;43.216;27.904;2022-08-19T02:52:31;23.30;77.54
67799;SHT30;54596;43.216;27.904;2022-08-19T02:54:56;23.31;77.49
67799;SHT30;54596;43.216;27.904;2022-08-19T02:57:22;23.28;77.75
67799;SHT30;54596;43.216;27.904;2022-08-19T02:59:48;23.27;78.36
67799;SHT30;54596;43.216;27.904;2022-08-19T03:02:13;23.33;78.91
67799;SHT30;54596;43.216;27.904;2022-08-19T03:04:39;23.37;78.83
67799;SHT30;54596;43.216;27.904;2022-08-19T03:07:04;23.34;78.98
67799;SHT30;54596;43.216;27.904;2022-08-19T03:09:29;23.28;79.35
67799;SHT30;54596;43.216;27.904;2022-08-19T03:11:55;23.23;79.22
67799;SHT30;54596;43.216;27.904;2022-08-19T03:14:20;23.23;78.99
67799;SHT30;54596;43.216;27.904;2022-08-19T03:16:47;23.17;78.81
67799;SHT30;54596;43.216;27.904;2022-08-19T03:19:13;23.17;78.60
67799;SHT30;54596;43.216;27.904;2022-08-19T03:21:39;23.15;78.35
67799;SHT30;54596;43.216;27.904;2022-08-19T03:24:06;23.15;78.06
67799;SHT30;54596;43.216;27.904;2022-08-19T03:26:31;23.13;77.43
67799;SHT30;54596;43.216;27.904;2022-08-19T03:28:57;23.07;77.40
67799;SHT30;54596;43.216;27.904;2022-08-19T03:31:23;23.13;77.21
67799;SHT30;54596;43.216;27.904;2022-08-19T03:33:49;23.15;77.00
67799;SHT30;54596;43.216;27.904;2022-08-19T03:36:20;23.10;76.87
67799;SHT30;54596;43.216;27.904;2022-08-19T03:38:49;23.09;76.88
67799;SHT30;54596;43.216;27.904;2022-08-19T03:41:19;23.09;76.57
67799;SHT30;54596;43.216;27.904;2022-08-19T03:43:45;23.17;76.18
67799;SHT30;54596;43.216;27.904;2022-08-19T03:46:21;23.24;75.87
67799;SHT30;54596;43.216;27.904;2022-08-19T03:48:48;23.31;75.72
67799;SHT30;54596;43.216;27.904;2022-08-19T03:51:17;23.30;75.68
67799;SHT30;54596;43.216;27.904;2022-08-19T03:53:45;23.33;75.54
67799;SHT30;54596;43.216;27.904;2022-08-19T03:56:10;23.34;75.44
67799;SHT30;54596;43.216;27.904;2022-08-19T03:58:36;23.46;75.42
67799;SHT30;54596;43.216;27.904;2022-08-19T04:01:02;23.51;75.02
67799;SHT30;54596;43.216;27.904;2022-08-19T04:03:31;23.58;74.98
67799;SHT30;54596;43.216;27.904;2022-08-19T04:05:57;23.58;74.79
67799;SHT30;54596;43.216;27.904;2022-08-19T04:08:22;23.62;74.71
67799;SHT30;54596;43.216;27.904;2022-08-19T04:10:48;23.71;74.36
67799;SHT30;54596;43.216;27.904;2022-08-19T04:13:17;23.62;74.49
67799;SHT30;54596;43.216;27.904;2022-08-19T04:15:43;23.64;74.72
67799;SHT30;54596;43.216;27.904;2022-08-19T04:18:10;23.64;74.83
67799;SHT30;54596;43.216;27.904;2022-08-19T04:20:39;23.68;74.70
67799;SHT30;54596;43.216;27.904;2022-08-19T04:23:04;23.76;74.62
67799;SHT30;54596;43.216;27.904;2022-08-19T04:25:34;23.75;74.59
67799;SHT30;54596;43.216;27.904;2022-08-19T04:27:59;23.90;74.37
67799;SHT30;54596;43.216;27.904;2022-08-19T04:30:25;23.81;74.49
67799;SHT30;54596;43.216;27.904;2022-08-19T04:32:50;23.86;74.47
67799;SHT30;54596;43.216;27.904;2022-08-19T04:35:16;23.89;74.56
67799;SHT30;54596;43.216;27.904;2022-08-19T04:37:41;23.96;74.58
67799;SHT30;54596;43.216;27.904;2022-08-19T04:40:06;24.03;74.39
67799;SHT30;54596;43.216;27.904;2022-08-19T04:42:50;24.13;74.47
67799;SHT30;54596;43.216;27.904;2022-08-19T04:45:16;24.20;74.21
67799;SHT30;54596;43.216;27.904;2022-08-19T04:47:42;24.26;73.68
67799;SHT30;54596;43.216;27.904;2022-08-19T04:50:08;24.43;73.45
67799;SHT30;54596;43.216;27.904;2022-08-19T04:52:36;24.44;73.33
67799;SHT30;54596;43.216;27.904;2022-08-19T04:55:02;24.57;73.19
67799;SHT30;54596;43.216;27.904;2022-08-19T04:57:27;24.64;73.13
67799;SHT30;54596;43.216;27.904;2022-08-19T04:59:54;24.76;72.88
67799;SHT30;54596;43.216;27.904;2022-08-19T05:02:19;24.88;72.78
67799;SHT30;54596;43.216;27.904;2022-08-19T05:04:45;25.07;72.25
67799;SHT30;54596;43.216;27.904;2022-08-19T05:07:10;25.19;71.92
67799;SHT30;54596;43.216;27.904;2022-08-19T05:09:35;25.35;71.33
67799;SHT30;54596;43.216;27.904;2022-08-19T05:12:01;25.71;69.98
67799;SHT30;54596;43.216;27.904;2022-08-19T05:14:26;26.14;68.91
67799;SHT30;54596;43.216;27.904;2022-08-19T05:16:52;26.55;67.81
67799;SHT30;54596;43.216;27.904;2022-08-19T05:19:17;27.62;65.07
67799;SHT30;54596;43.216;27.904;2022-08-19T05:22:01;28.96;61.07
67799;SHT30;54596;43.216;27.904;2022-08-19T05:24:45;29.59;59.18
67799;SHT30;54596;43.216;27.904;2022-08-19T05:27:11;30.06;58.15
67799;SHT30;54596;43.216;27.904;2022-08-19T05:29:36;30.85;56.21
67799;SHT30;54596;43.216;27.904;2022-08-19T05:32:05;31.96;53.30
67799;SHT30;54596;43.216;27.904;2022-08-19T05:34:33;33.50;49.67
67799;SHT30;54596;43.216;27.904;2022-08-19T05:37:01;34.44;48.20
67799;SHT30;54596;43.216;27.904;2022-08-19T05:39:27;34.86;47.01
67799;SHT30;54596;43.216;27.904;2022-08-19T05:41:54;35.72;45.05
67799;SHT30;54596;43.216;27.904;2022-08-19T05:44:22;36.24;43.58
67799;SHT30;54596;43.216;27.904;2022-08-19T05:46:48;36.60;42.88
67799;SHT30;54596;43.216;27.904;2022-08-19T05:49:14;37.09;41.95
67799;SHT30;54596;43.216;27.904;2022-08-19T05:51:40;37.81;40.96
67799;SHT30;54596;43.216;27.904;2022-08-19T05:54:06;37.51;40.87
67799;SHT30;54596;43.216;27.904;2022-08-19T05:56:32;38.05;40.13
67799;SHT30;54596;43.216;27.904;2022-08-19T05:59:01;39.05;38.95
67799;SHT30;54596;43.216;27.904;2022-08-19T06:01:27;39.53;38.00
67799;SHT30;54596;43.216;27.904;2022-08-19T06:03:52;39.63;37.69
67799;SHT30;54596;43.216;27.904;2022-08-19T06:06:17;39.63;37.78
67799;SHT30;54596;43.216;27.904;2022-08-19T06:08:43;39.16;38.33
67799;SHT30;54596;43.216;27.904;2022-08-19T06:13:41;40.28;37.14
67799;SHT30;54596;43.216;27.904;2022-08-19T06:16:06;40.67;36.30
67799;SHT30;54596;43.216;27.904;2022-08-19T06:18:31;41.26;35.88
67799;SHT30;54596;43.216;27.904;2022-08-19T06:20:58;41.50;35.63
67799;SHT30;54596;43.216;27.904;2022-08-19T06:23:23;41.26;35.76
67799;SHT30;54596;43.216;27.904;2022-08-19T06:25:49;40.71;36.51
67799;SHT30;54596;43.216;27.904;2022-08-19T06:28:14;41.09;35.67
67799;SHT30;54596;43.216;27.904;2022-08-19T06:30:39;41.77;35.03
67799;SHT30;54596;43.216;27.904;2022-08-19T06:33:05;41.61;35.41
67799;SHT30;54596;43.216;27.904;2022-08-19T06:35:30;41.74;34.55
67799;SHT30;54596;43.216;27.904;2022-08-19T06:37:55;42.37;34.18
67799;SHT30;54596;43.216;27.904;2022-08-19T06:40:21;42.25;34.66
67799;SHT30;54596;43.216;27.904;2022-08-19T06:42:46;41.66;35.00
67799;SHT30;54596;43.216;27.904;2022-08-19T06:45:12;41.45;35.20
67799;SHT30;54596;43.216;27.904;2022-08-19T06:47:37;41.80;34.95
67799;SHT30;54596;43.216;27.904;2022-08-19T06:50:02;41.76;34.78
67799;SHT30;54596;43.216;27.904;2022-08-19T06:52:32;41.40;35.14
67799;SHT30;54596;43.216;27.904;2022-08-19T06:54:59;42.53;34.21
67799;SHT30;54596;43.216;27.904;2022-08-19T06:57:24;43.43;33.03
67799;SHT30;54596;43.216;27.904;2022-08-19T06:59:50;44.14;32.13
67799;SHT30;54596;43.216;27.904;2022-08-19T07:02:15;44.22;31.78
67799;SHT30;54596;43.216;27.904;2022-08-19T07:04:40;44.47;31.51
67799;SHT30;54596;43.216;27.904;2022-08-19T07:07:10;44.55;31.28
67799;SHT30;54596;43.216;27.904;2022-08-19T07:09:38;44.50;31.28
67799;SHT30;54596;43.216;27.904;2022-08-19T07:12:04;44.33;31.30
67799;SHT30;54596;43.216;27.904;2022-08-19T07:14:32;44.87;30.87
67799;SHT30;54596;43.216;27.904;2022-08-19T07:16:57;45.76;30.28
67799;SHT30;54596;43.216;27.904;2022-08-19T07:19:24;45.46;30.38
67799;SHT30;54596;43.216;27.904;2022-08-19T07:21:51;45.57;30.08
67799;SHT30;54596;43.216;27.904;2022-08-19T07:24:18;45.29;30.31
67799;SHT30;54596;43.216;27.904;2022-08-19T07:26:44;44.98;30.66
67799;SHT30;54596;43.216;27.904;2022-08-19T07:29:10;45.29;30.57
67799;SHT30;54596;43.216;27.904;2022-08-19T07:31:35;45.89;29.71
67799;SHT30;54596;43.216;27.904;2022-08-19T07:34:05;45.64;29.92
67799;SHT30;54596;43.216;27.904;2022-08-19T07:36:35;46.42;29.15
67799;SHT30;54596;43.216;27.904;2022-08-19T07:39:02;45.53;29.91
67799;SHT30;54596;43.216;27.904;2022-08-19T07:41:28;46.28;29.38
67799;SHT30;54596;43.216;27.904;2022-08-19T07:43:56;47.61;28.19
67799;SHT30;54596;43.216;27.904;2022-08-19T07:46:22;46.47;29.15
67799;SHT30;54596;43.216;27.904;2022-08-19T07:48:48;46.47;29.06
67799;SHT30;54596;43.216;27.904;2022-08-19T07:51:22;47.14;28.54
67799;SHT30;54596;43.216;27.904;2022-08-19T07:53:48;47.64;27.80
67799;SHT30;54596;43.216;27.904;2022-08-19T07:56:15;47.30;27.95
67799;SHT30;54596;43.216;27.904;2022-08-19T07:58:41;47.11;28.41
67799;SHT30;54596;43.216;27.904;2022-08-19T08:01:07;48.01;27.51
67799;SHT30;54596;43.216;27.904;2022-08-19T08:03:33;47.38;27.92
67799;SHT30;54596;43.216;27.904;2022-08-19T08:06:17;46.49;28.70
67799;SHT30;54596;43.216;27.904;2022-08-19T08:09:02;46.38;28.54
67799;SHT30;54596;43.216;27.904;2022-08-19T08:11:37;44.69;29.22
67799;SHT30;54596;43.216;27.904;2022-08-19T08:14:03;43.98;30.38
67799;SHT30;54596;43.216;27.904;2022-08-19T08:16:30;43.77;30.56
67799;SHT30;54596;43.216;27.904;2022-08-19T08:18:56;44.02;30.51
67799;SHT30;54596;43.216;27.904;2022-08-19T08:21:22;43.57;30.94
67799;SHT30;54596;43.216;27.904;2022-08-19T08:23:47;43.35;30.98
67799;SHT30;54596;43.216;27.904;2022-08-19T08:26:12;42.28;32.36
67799;SHT30;54596;43.216;27.904;2022-08-19T08:28:39;40.98;33.77
67799;SHT30;54596;43.216;27.904;2022-08-19T08:31:05;40.73;34.42
67799;SHT30;54596;43.216;27.904;2022-08-19T08:33:30;39.95;35.11
67799;SHT30;54596;43.216;27.904;2022-08-19T08:35:55;39.46;35.76
67799;SHT30;54596;43.216;27.904;2022-08-19T08:38:21;39.39;35.56
67799;SHT30;54596;43.216;27.904;2022-08-19T08:40:47;39.11;35.78
67799;SHT30;54596;43.216;27.904;2022-08-19T08:43:27;38.56;36.79
67799;SHT30;54596;43.216;27.904;2022-08-19T08:46:04;37.50;38.18
67799;SHT30;54596;43.216;27.904;2022-08-19T08:48:33;36.91;39.14
67799;SHT30;54596;43.216;27.904;2022-08-19T08:51:02;36.82;39.53
67799;SHT30;54596;43.216;27.904;2022-08-19T08:53:28;36.47;39.87
67799;SHT30;54596;43.216;27.904;2022-08-19T08:55:53;36.30;40.11
67799;SHT30;54596;43.216;27.904;2022-08-19T08:58:26;36.06;40.48
67799;SHT30;54596;43.216;27.904;2022-08-19T09:00:53;35.95;40.33
67799;SHT30;54596;43.216;27.904;2022-08-19T09:03:20;35.92;40.78
67799;SHT30;54596;43.216;27.904;2022-08-19T09:08:27;35.86;40.40
67799;SHT30;54596;43.216;27.904;2022-08-19T09:10:55;34.62;42.55
67799;SHT30;54596;43.216;27.904;2022-08-19T09:15:58;34.61;42.37
67799;SHT30;54596;43.216;27.904;2022-08-19T09:18:26;34.75;42.58
67799;SHT30;54596;43.216;27.904;2022-08-19T09:20:51;34.71;42.28
67799;SHT30;54596;43.216;27.904;2022-08-19T09:23:17;34.86;41.86
67799;SHT30;54596;43.216;27.904;2022-08-19T09:25:43;34.69;42.02
67799;SHT30;54596;43.216;27.904;2022-08-19T09:28:10;34.71;41.81
67799;SHT30;54596;43.216;27.904;2022-08-19T09:30:39;34.67;42.17
67799;SHT30;54596;43.216;27.904;2022-08-19T09:33:04;34.62;41.53
67799;SHT30;54596;43.216;27.904;2022-08-19T09:35:31;34.55;41.90
67799;SHT30;54596;43.216;27.904;2022-08-19T09:37:57;34.67;42.53
67799;SHT30;54596;43.216;27.904;2022-08-19T09:40:23;34.69;42.47
67799;SHT30;54596;43.216;27.904;2022-08-19T09:42:48;34.65;42.30
67799;SHT30;54596;43.216;27.904;2022-08-19T09:45:15;34.40;42.99
67799;SHT30;54596;43.216;27.904;2022-08-19T09:47:41;34.09;42.90
67799;SHT30;54596;43.216;27.904;2022-08-19T09:50:08;34.32;43.00
67799;SHT30;54596;43.216;27.904;2022-08-19T09:52:34;34.37;42.54
67799;SHT30;54596;43.216;27.904;2022-08-19T09:55:05;33.93;43.45
67799;SHT30;54596;43.216;27.904;2022-08-19T09:57:31;33.99;43.69
67799;SHT30;54596;43.216;27.904;2022-08-19T09:59:56;34.21;43.91
67799;SHT30;54596;43.216;27.904;2022-08-19T10:02:21;34.16;43.63
67799;SHT30;54596;43.216;27.904;2022-08-19T10:04:47;33.88;43.97
67799;SHT30;54596;43.216;27.904;2022-08-19T10:07:30;33.76;43.77
67799;SHT30;54596;43.216;27.904;2022-08-19T10:09:56;33.72;44.41
67799;SHT30;54596;43.216;27.904;2022-08-19T10:12:21;34.03;44.31
67799;SHT30;54596;43.216;27.904;2022-08-19T10:14:47;34.09;44.07
67799;SHT30;54596;43.216;27.904;2022-08-19T10:17:13;33.86;44.05
67799;SHT30;54596;43.216;27.904;2022-08-19T10:19:38;33.78;43.54
67799;SHT30;54596;43.216;27.904;2022-08-19T10:22:06;33.78;44.04
67799;SHT30;54596;43.216;27.904;2022-08-19T10:24:32;33.50;44.86
67799;SHT30;54596;43.216;27.904;2022-08-19T10:26:59;33.76;44.03
67799;SHT30;54596;43.216;27.904;2022-08-19T10:29:24;33.61;43.44
67799;SHT30;54596;43.216;27.904;2022-08-19T10:31:49;33.58;42.78
67799;SHT30;54596;43.216;27.904;2022-08-19T10:34:15;33.78;42.88
67799;SHT30;54596;43.216;27.904;2022-08-19T10:36:41;33.81;42.89
67799;SHT30;54596;43.216;27.904;2022-08-19T10:39:07;33.82;42.82
67799;SHT30;54596;43.216;27.904;2022-08-19T10:41:34;33.89;43.18
67799;SHT30;54596;43.216;27.904;2022-08-19T10:44:01;33.92;42.02
67799;SHT30;54596;43.216;27.904;2022-08-19T10:46:27;33.88;42.85
67799;SHT30;54596;43.216;27.904;2022-08-19T10:48:53;33.79;42.99
67799;SHT30;54596;43.216;27.904;2022-08-19T10:51:19;33.65;43.64
67799;SHT30;54596;43.216;27.904;2022-08-19T10:54:03;33.76;43.55
67799;SHT30;54596;43.216;27.904;2022-08-19T10:56:29;33.92;42.53
67799;SHT30;54596;43.216;27.904;2022-08-19T10:59:13;33.62;42.16
67799;SHT30;54596;43.216;27.904;2022-08-19T11:01:39;33.90;42.03
67799;SHT30;54596;43.216;27.904;2022-08-19T11:04:05;33.95;41.80
67799;SHT30;54596;43.216;27.904;2022-08-19T11:06:33;33.75;43.73
67799;SHT30;54596;43.216;27.904;2022-08-19T11:08:58;33.14;51.62
67799;SHT30;54596;43.216;27.904;2022-08-19T11:11:25;32.80;53.77
67799;SHT30;54596;43.216;27.904;2022-08-19T11:13:50;32.02;57.10
67799;SHT30;54596;43.216;27.904;2022-08-19T11:16:17;31.69;58.18
67799;SHT30;54596;43.216;27.904;2022-08-19T11:18:44;31.23;57.97
67799;SHT30;54596;43.216;27.904;2022-08-19T11:21:11;31.35;58.85
67799;SHT30;54596;43.216;27.904;2022-08-19T11:23:37;31.33;60.46
67799;SHT30;54596;43.216;27.904;2022-08-19T11:26:03;30.83;61.79
67799;SHT30;54596;43.216;27.904;2022-08-19T11:28:29;30.54;63.83
67799;SHT30;54596;43.216;27.904;2022-08-19T11:30:54;30.34;62.84
67799;SHT30;54596;43.216;27.904;2022-08-19T11:33:20;30.58;64.79
67799;SHT30;54596;43.216;27.904;2022-08-19T11:35:45;30.52;64.30
67799;SHT30;54596;43.216;27.904;2022-08-19T11:38:10;30.23;62.03
67799;SHT30;54596;43.216;27.904;2022-08-19T11:40:36;30.02;61.53
67799;SHT30;54596;43.216;27.904;2022-08-19T11:43:01;29.75;61.63
67799;SHT30;54596;43.216;27.904;2022-08-19T11:45:27;29.93;62.35
67799;SHT30;54596;43.216;27.904;2022-08-19T11:47:53;30.07;63.75
67799;SHT30;54596;43.216;27.904;2022-08-19T11:50:18;29.63;63.97
67799;SHT30;54596;43.216;27.904;2022-08-19T11:52:44;29.62;64.48
67799;SHT30;54596;43.216;27.904;2022-08-19T11:55:10;29.54;66.66
67799;SHT30;54596;43.216;27.904;2022-08-19T11:57:36;29.55;65.69
67799;SHT30;54596;43.216;27.904;2022-08-19T12:00:02;29.69;65.31
67799;SHT30;54596;43.216;27.904;2022-08-19T12:02:29;29.86;64.55
67799;SHT30;54596;43.216;27.904;2022-08-19T12:04:54;30.09;63.96
67799;SHT30;54596;43.216;27.904;2022-08-19T12:07:20;30.20;63.38
67799;SHT30;54596;43.216;27.904;2022-08-19T12:09:45;29.93;64.37
67799;SHT30;54596;43.216;27.904;2022-08-19T12:12:11;29.83;65.10
67799;SHT30;54596;43.216;27.904;2022-08-19T12:14:36;29.83;64.72
67799;SHT30;54596;43.216;27.904;2022-08-19T12:17:02;29.86;65.81
67799;SHT30;54596;43.216;27.904;2022-08-19T12:19:29;29.68;65.73
67799;SHT30;54596;43.216;27.904;2022-08-19T12:21:58;29.57;64.75
67799;SHT30;54596;43.216;27.904;2022-08-19T12:24:24;29.59;65.54
67799;SHT30;54596;43.216;27.904;2022-08-19T12:26:50;29.41;66.69
67799;SHT30;54596;43.216;27.904;2022-08-19T12:29:16;29.55;67.49
67799;SHT30;54596;43.216;27.904;2022-08-19T12:31:41;29.41;67.44
67799;SHT30;54596;43.216;27.904;2022-08-19T12:34:06;29.30;68.04
67799;SHT30;54596;43.216;27.904;2022-08-19T12:36:32;29.28;67.43
67799;SHT30;54596;43.216;27.904;2022-08-19T12:38:58;29.30;67.58
67799;SHT30;54596;43.216;27.904;2022-08-19T12:41:25;29.13;67.63
67799;SHT30;54596;43.216;27.904;2022-08-19T12:43:50;29.00;67.93
67799;SHT30;54596;43.216;27.904;2022-08-19T12:46:16;28.99;68.83
67799;SHT30;54596;43.216;27.904;2022-08-19T12:48:42;28.79;68.39
67799;SHT30;54596;43.216;27.904;2022-08-19T12:51:11;28.68;69.12
67799;SHT30;54596;43.216;27.904;2022-08-19T12:53:37;28.66;69.41
67799;SHT30;54596;43.216;27.904;2022-08-19T12:56:03;28.83;68.33
67799;SHT30;54596;43.216;27.904;2022-08-19T12:58:30;28.62;67.96
67799;SHT30;54596;43.216;27.904;2022-08-19T13:00:55;28.43;68.68
67799;SHT30;54596;43.216;27.904;2022-08-19T13:03:20;28.38;69.15
67799;SHT30;54596;43.216;27.904;2022-08-19T13:05:50;28.47;68.89
67799;SHT30;54596;43.216;27.904;2022-08-19T13:08:15;28.57;68.60
67799;SHT30;54596;43.216;27.904;2022-08-19T13:10:42;28.40;68.74
67799;SHT30;54596;43.216;27.904;2022-08-19T13:13:08;28.47;68.81
67799;SHT30;54596;43.216;27.904;2022-08-19T13:15:35;28.36;69.31
67799;SHT30;54596;43.216;27.904;2022-08-19T13:18:00;28.33;69.27
67799;SHT30;54596;43.216;27.904;2022-08-19T13:20:26;28.21;69.36
67799;SHT30;54596;43.216;27.904;2022-08-19T13:22:52;28.24;69.55
67799;SHT30;54596;43.216;27.904;2022-08-19T13:25:17;28.14;69.70
67799;SHT30;54596;43.216;27.904;2022-08-19T13:27:44;28.10;70.22
67799;SHT30;54596;43.216;27.904;2022-08-19T13:30:11;28.09;70.64
67799;SHT30;54596;43.216;27.904;2022-08-19T13:32:55;28.05;70.14
67799;SHT30;54596;43.216;27.904;2022-08-19T13:35:36;28.03;69.59
67799;SHT30;54596;43.216;27.904;2022-08-19T13:38:01;27.92;69.88
67799;SHT30;54596;43.216;27.904;2022-08-19T13:40:29;27.86;69.74
67799;SHT30;54596;43.216;27.904;2022-08-19T13:42:57;27.93;70.41
67799;SHT30;54596;43.216;27.904;2022-08-19T13:45:24;27.92;70.33
67799;SHT30;54596;43.216;27.904;2022-08-19T13:47:54;28.12;69.81
67799;SHT30;54596;43.216;27.904;2022-08-19T13:50:20;28.10;69.73
67799;SHT30;54596;43.216;27.904;2022-08-19T13:52:46;28.17;69.66
67799;SHT30;54596;43.216;27.904;2022-08-19T13:55:13;28.09;69.76
67799;SHT30;54596;43.216;27.904;2022-08-19T13:57:38;27.95;70.19
67799;SHT30;54596;43.216;27.904;2022-08-19T14:00:06;27.95;70.15
67799;SHT30;54596;43.216;27.904;2022-08-19T14:02:33;28.07;69.68
67799;SHT30;54596;43.216;27.904;2022-08-19T14:04:58;28.06;69.68
67799;SHT30;54596;43.216;27.904;2022-08-19T14:07:23;28.03;70.16
67799;SHT30;54596;43.216;27.904;2022-08-19T14:09:49;28.03;70.20
67799;SHT30;54596;43.216;27.904;2022-08-19T14:12:18;28.16;69.06
67799;SHT30;54596;43.216;27.904;2022-08-19T14:14:43;28.21;68.98
67799;SHT30;54596;43.216;27.904;2022-08-19T14:17:08;28.16;67.82
67799;SHT30;54596;43.216;27.904;2022-08-19T14:19:34;28.17;68.08
67799;SHT30;54596;43.216;27.904;2022-08-19T14:22:00;28.03;68.65
67799;SHT30;54596;43.216;27.904;2022-08-19T14:24:25;27.93;68.89
67799;SHT30;54596;43.216;27.904;2022-08-19T14:26:51;27.89;69.31
67799;SHT30;54596;43.216;27.904;2022-08-19T14:29:16;27.86;69.24
67799;SHT30;54596;43.216;27.904;2022-08-19T14:31:42;27.85;69.28
67799;SHT30;54596;43.216;27.904;2022-08-19T14:34:08;27.84;70.43
67799;SHT30;54596;43.216;27.904;2022-08-19T14:36:35;27.82;69.82
67799;SHT30;54596;43.216;27.904;2022-08-19T14:39:00;27.79;70.30
67799;SHT30;54596;43.216;27.904;2022-08-19T14:41:26;27.89;70.39
67799;SHT30;54596;43.216;27.904;2022-08-19T14:43:52;27.88;69.92
67799;SHT30;54596;43.216;27.904;2022-08-19T14:46:21;27.95;70.06
67799;SHT30;54596;43.216;27.904;2022-08-19T14:48:47;28.07;70.20
67799;SHT30;54596;43.216;27.904;2022-08-19T14:51:13;28.05;69.92
67799;SHT30;54596;43.216;27.904;2022-08-19T14:53:39;28.13;69.38
67799;SHT30;54596;43.216;27.904;2022-08-19T14:56:09;28.17;69.17
67799;SHT30;54596;43.216;27.904;2022-08-19T14:58:34;28.16;69.39
67799;SHT30;54596;43.216;27.904;2022-08-19T15:01:00;28.14;69.57
67799;SHT30;54596;43.216;27.904;2022-08-19T15:03:25;28.20;69.25
67799;SHT30;54596;43.216;27.904;2022-08-19T15:05:51;28.14;68.78
67799;SHT30;54596;43.216;27.904;2022-08-19T15:08:16;28.16;68.69
67799;SHT30;54596;43.216;27.904;2022-08-19T15:10:41;28.13;68.99
67799;SHT30;54596;43.216;27.904;2022-08-19T15:13:07;27.99;69.12
67799;SHT30;54596;43.216;27.904;2022-08-19T15:15:34;27.96;69.29
67799;SHT30;54596;43.216;27.904;2022-08-19T15:18:00;27.84;68.97
67799;SHT30;54596;43.216;27.904;2022-08-19T15:20:27;27.81;69.49